createdAt,value
2022-11-19T00:01:35.605Z,6
2022-11-19T00:04:37.553Z,6
2022-11-19T00:07:39.571Z,7.3
2022-11-19T00:10:41.477Z,7.8
2022-11-19T00:13:43.436Z,8.7
2022-11-19T00:16:45.417Z,7.2
2022-11-19T00:19:47.369Z,8.6
2022-11-19T00:22:49.316Z,9.1
2022-11-19T00:25:51.311Z,9
2022-11-19T00:28:53.269Z,7.3
2022-11-19T00:31:55.200Z,10.2
2022-11-19T00:34:57.183Z,9.9
2022-11-19T00:37:59.146Z,10
2022-11-19T00:41:01.053Z,9.8
2022-11-19T00:44:03.022Z,8.5
2022-11-19T00:47:05.025Z,12.6
2022-11-19T00:50:06.942Z,11.2
2022-11-19T00:53:08.907Z,9.9
2022-11-19T00:56:10.885Z,9.4
2022-11-19T00:59:12.841Z,10.3
2022-11-19T01:02:14.818Z,9.4
2022-11-19T01:05:16.774Z,10.6
2022-11-19T01:08:18.775Z,10.3
2022-11-19T01:11:20.755Z,9.7
2022-11-19T01:14:22.710Z,12.2
2022-11-19T01:17:24.661Z,9.9
2022-11-19T01:20:26.699Z,9.8
2022-11-19T01:23:28.606Z,12.8
2022-11-19T01:26:30.542Z,13.1
2022-11-19T01:29:32.464Z,13.4
2022-11-19T01:32:34.432Z,11.9
2022-11-19T01:35:36.437Z,13
2022-11-19T01:38:38.396Z,15.5
2022-11-19T01:41:40.355Z,13.6
2022-11-19T01:44:42.454Z,12.6
2022-11-19T01:47:44.271Z,12.5
2022-11-19T01:50:46.237Z,11.4
2022-11-19T01:53:48.197Z,13.8
2022-11-19T01:56:50.176Z,16.1
2022-11-19T01:59:52.158Z,18
2022-11-19T02:02:54.115Z,17.3
2022-11-19T02:08:58.033Z,19.4
2022-11-19T02:11:59.968Z,18.8
2022-11-19T02:15:01.935Z,18.7
2022-11-19T02:18:03.915Z,20.5
2022-11-19T02:21:05.862Z,19.1
2022-11-19T02:24:07.822Z,21
2022-11-19T02:27:09.844Z,20
2022-11-19T02:30:11.774Z,17.5
2022-11-19T02:33:13.730Z,18.6
2022-11-19T02:36:15.702Z,22.5
2022-11-19T02:39:17.983Z,21.8
2022-11-19T02:42:19.640Z,21.2
2022-11-19T02:45:21.622Z,19.8
2022-11-19T02:48:23.585Z,23.7
2022-11-19T02:51:25.515Z,20.7
2022-11-19T02:54:27.461Z,21.6
2022-11-19T02:57:29.432Z,19.2
2022-11-19T03:00:31.392Z,20.6
2022-11-19T03:03:33.392Z,26.7
2022-11-19T03:06:35.318Z,21.6
2022-11-19T03:09:37.262Z,24.3
2022-11-19T03:12:39.232Z,26.3
2022-11-19T03:15:41.194Z,23.3
2022-11-19T03:18:43.168Z,23.8
2022-11-19T03:21:45.121Z,26.8
2022-11-19T03:24:47.085Z,25.5
2022-11-19T03:27:49.039Z,22.9
2022-11-19T03:30:51.008Z,26.4
2022-11-19T03:33:53.004Z,24.2
2022-11-19T03:36:54.921Z,27.8
2022-11-19T03:39:56.886Z,24.5
2022-11-19T03:42:58.888Z,23.4
2022-11-19T03:46:00.812Z,24.4
2022-11-19T03:49:02.779Z,23.2
2022-11-19T03:52:04.800Z,23.5
2022-11-19T03:55:06.703Z,26.8
2022-11-19T03:58:08.658Z,23
2022-11-19T04:01:10.633Z,21.6
2022-11-19T04:04:12.610Z,23.4
2022-11-19T04:07:14.665Z,22
2022-11-19T04:10:16.544Z,23.3
2022-11-19T04:13:18.541Z,22.9
2022-11-19T04:16:20.501Z,25.5
2022-11-19T04:19:22.500Z,24.5
2022-11-19T04:22:24.398Z,28
2022-11-19T04:25:26.393Z,24.5
2022-11-19T04:28:28.494Z,23.2
2022-11-19T04:31:30.309Z,27.4
2022-11-19T04:34:32.273Z,27.3
2022-11-19T04:37:34.233Z,26.4
2022-11-19T04:40:36.191Z,30.8
2022-11-19T04:43:38.162Z,24.6
2022-11-19T04:46:40.132Z,29.6
2022-11-19T04:49:42.088Z,25.4
2022-11-19T04:52:44.061Z,23.7
2022-11-19T04:55:46.029Z,20
2022-11-19T04:58:48.009Z,17.8
2022-11-19T05:01:49.984Z,16.5
2022-11-19T05:04:51.915Z,11.7
2022-11-19T05:07:53.847Z,11.3
2022-11-19T05:10:55.866Z,11.8
2022-11-19T05:13:57.804Z,10.1
2022-11-19T05:16:59.772Z,9.7
2022-11-19T05:20:01.729Z,10.2
2022-11-19T05:23:03.660Z,7.8
2022-11-19T05:26:05.648Z,8.9
2022-11-19T05:29:07.584Z,10.8
2022-11-19T05:32:09.550Z,10.1
2022-11-19T05:35:11.496Z,10
2022-11-19T05:38:13.470Z,9.3
2022-11-19T05:41:15.422Z,10.4
2022-11-19T05:44:17.527Z,10.3
2022-11-19T05:47:19.458Z,12.8
2022-11-19T05:50:21.400Z,9.7
2022-11-19T05:53:23.362Z,10.8
2022-11-19T05:56:25.362Z,8.7
2022-11-19T05:59:27.338Z,12.3
2022-11-19T06:02:29.292Z,12.1
2022-11-19T06:05:33.661Z,11.4
2022-11-19T06:08:33.146Z,12.4
2022-11-19T06:11:35.116Z,11.6
2022-11-19T06:14:37.089Z,14.1
2022-11-19T06:17:39.059Z,12.8
2022-11-19T06:20:41.050Z,13.2
2022-11-19T06:23:42.983Z,12.9
2022-11-19T06:26:44.942Z,14.6
2022-11-19T06:29:46.939Z,13.2
2022-11-19T06:32:48.858Z,15.8
2022-11-19T06:35:50.825Z,15.5
2022-11-19T06:38:52.781Z,13.8
2022-11-19T06:41:54.794Z,14.4
2022-11-19T06:44:56.761Z,12.4
2022-11-19T06:47:58.907Z,16.2
2022-11-19T06:51:00.664Z,14.4
2022-11-19T06:54:02.661Z,13.4
2022-11-19T06:57:04.619Z,15.1
2022-11-19T07:00:06.556Z,14
2022-11-19T07:03:08.516Z,15.4
2022-11-19T07:06:10.488Z,13.2
2022-11-19T07:09:12.460Z,13
2022-11-19T07:12:14.417Z,14.2
2022-11-19T07:15:16.390Z,13
2022-11-19T07:18:18.357Z,14.1
2022-11-19T07:21:20.311Z,17.5
2022-11-19T07:24:22.285Z,14.5
2022-11-19T07:27:24.289Z,16.5
2022-11-19T07:30:26.202Z,15.6
2022-11-19T07:33:28.168Z,16.8
2022-11-19T07:36:30.101Z,15.7
2022-11-19T07:39:32.090Z,14.9
2022-11-19T07:42:34.083Z,15.1
2022-11-19T07:45:36.030Z,15.8
2022-11-19T07:48:38.404Z,16.5
2022-11-19T07:51:40.389Z,14.2
2022-11-19T07:54:42.366Z,16.1
2022-11-19T07:57:44.287Z,13.5
2022-11-19T08:00:46.255Z,14
2022-11-19T08:03:51.984Z,14.1
2022-11-19T08:06:50.187Z,15
2022-11-19T08:09:52.120Z,15.7
2022-11-19T08:12:54.116Z,12.9
2022-11-19T08:15:56.059Z,13.8
2022-11-19T08:18:58.017Z,11.9
2022-11-19T08:22:00.020Z,13.7
2022-11-19T08:25:01.989Z,11.2
2022-11-19T08:28:03.941Z,11.5
2022-11-19T08:31:05.876Z,14.2
2022-11-19T08:34:07.838Z,14.2
2022-11-19T08:37:09.787Z,14.1
2022-11-19T08:40:11.752Z,15.5
2022-11-19T08:43:13.717Z,12.6
2022-11-19T08:46:15.701Z,12.5
2022-11-19T08:49:17.646Z,11.7
2022-11-19T08:52:19.609Z,13
2022-11-19T08:55:21.563Z,12.8
2022-11-19T08:58:23.546Z,13.2
2022-11-19T09:01:25.541Z,16.6
2022-11-19T09:04:27.460Z,13.1
2022-11-19T09:07:29.518Z,13.2
2022-11-19T09:10:31.382Z,14.4
2022-11-19T09:13:33.344Z,12.2
2022-11-19T09:16:35.286Z,12.2
2022-11-19T09:19:37.301Z,11.3
2022-11-19T09:22:39.214Z,11.7
2022-11-19T09:25:41.189Z,16.4
2022-11-19T09:28:43.142Z,12.7
2022-11-19T09:31:45.086Z,14.3
2022-11-19T09:34:47.057Z,16
2022-11-19T09:37:49.041Z,17.5
2022-11-19T09:40:51.042Z,15.5
2022-11-19T09:43:52.968Z,15.6
2022-11-19T09:46:54.983Z,15.1
2022-11-19T09:49:56.928Z,14.8
2022-11-19T09:52:58.899Z,15.9
2022-11-19T09:56:00.852Z,15.5
2022-11-19T09:59:02.824Z,18.5
2022-11-19T10:02:04.752Z,16.8
2022-11-19T10:05:06.726Z,17.1
2022-11-19T10:08:08.679Z,16.4
2022-11-19T10:11:10.657Z,15.6
2022-11-19T10:14:12.625Z,17.8
2022-11-19T10:17:14.594Z,17
2022-11-19T10:20:16.595Z,18.5
2022-11-19T10:23:18.531Z,18.1
2022-11-19T10:26:20.491Z,16.1
2022-11-19T10:29:22.731Z,16.5
2022-11-19T10:32:24.453Z,14.8
2022-11-19T10:35:26.416Z,15.2
2022-11-19T10:38:28.371Z,18.3
2022-11-19T10:41:30.293Z,16.5
2022-11-19T10:44:32.287Z,15.4
2022-11-19T10:47:34.222Z,13.7
2022-11-19T10:50:36.205Z,13.5
2022-11-19T10:53:38.118Z,13.7
2022-11-19T10:56:40.085Z,15.2
2022-11-19T10:59:42.069Z,15.7
2022-11-19T11:02:44.003Z,16.8
2022-11-19T11:05:45.966Z,15.3
2022-11-19T11:08:47.939Z,15.1
2022-11-19T11:11:49.900Z,19.4
2022-11-19T11:14:51.853Z,20.2
2022-11-19T11:17:53.813Z,19.5
2022-11-19T11:20:55.829Z,24
2022-11-19T11:23:57.785Z,20.9
2022-11-19T11:26:59.704Z,23
2022-11-19T11:30:01.671Z,26.8
2022-11-19T11:33:07.805Z,22.9
2022-11-19T11:36:05.618Z,20.1
2022-11-19T11:39:07.543Z,25
2022-11-19T11:42:13.159Z,21.5
2022-11-19T11:45:11.462Z,23.6
2022-11-19T11:48:13.422Z,23.9
2022-11-19T11:51:15.397Z,20.3
2022-11-19T11:54:18.251Z,20.3
2022-11-19T11:57:19.319Z,20.2
2022-11-19T12:00:21.355Z,22.3
2022-11-19T12:03:23.265Z,20.6
2022-11-19T12:06:25.272Z,20.8
2022-11-19T12:09:27.193Z,21
2022-11-19T12:12:29.194Z,25.8
2022-11-19T12:15:31.151Z,22.6
2022-11-19T12:18:33.070Z,21.8
2022-11-19T12:21:35.063Z,29.9
2022-11-19T12:24:36.999Z,23.1
2022-11-19T12:27:38.951Z,22.9
2022-11-19T12:30:40.904Z,29.3
2022-11-19T12:33:42.865Z,23.8
2022-11-19T12:36:44.865Z,22.9
2022-11-19T12:39:46.791Z,24.5
2022-11-19T12:42:48.761Z,27.2
2022-11-19T12:45:50.761Z,22
2022-11-19T12:48:52.684Z,23.5
2022-11-19T12:51:54.650Z,23.5
2022-11-19T12:54:56.644Z,30.7
2022-11-19T12:57:58.627Z,24.5
2022-11-19T13:01:00.660Z,25.7
2022-11-19T13:04:02.518Z,30.5
2022-11-19T13:07:04.490Z,28.1
2022-11-19T13:10:06.458Z,25.5
2022-11-19T13:13:08.393Z,26.9
2022-11-19T13:16:10.378Z,24.6
2022-11-19T13:19:12.312Z,22.1
2022-11-19T13:22:14.281Z,23.4
2022-11-19T13:25:16.260Z,23.2
2022-11-19T13:28:18.212Z,30.1
2022-11-19T13:31:20.179Z,26
2022-11-19T13:34:22.134Z,25.5
2022-11-19T13:37:24.093Z,25.3
2022-11-19T13:40:26.049Z,24.3
2022-11-19T13:43:32.686Z,24
2022-11-19T13:46:29.995Z,22.7
2022-11-19T13:49:31.929Z,22.2
2022-11-19T13:52:33.884Z,23.2
2022-11-19T13:55:35.839Z,23.3
2022-11-19T13:58:37.992Z,26.6
2022-11-19T14:01:40.128Z,26.3
2022-11-19T14:04:42.105Z,24.5
2022-11-19T14:07:44.048Z,30.9
2022-11-19T14:10:45.986Z,31
2022-11-19T14:13:47.943Z,25.3
2022-11-19T14:16:49.930Z,27.2
2022-11-19T14:19:51.871Z,22.7
2022-11-19T14:22:53.835Z,23.6
2022-11-19T14:25:55.801Z,26.9
2022-11-19T14:28:57.780Z,33.2
2022-11-19T14:31:59.752Z,29.1
2022-11-19T14:35:01.706Z,29.7
2022-11-19T14:38:03.703Z,31.8
2022-11-19T14:41:05.661Z,30.7
2022-11-19T14:44:07.591Z,28.7
2022-11-19T14:47:09.531Z,28.9
2022-11-19T14:50:11.516Z,21.7
2022-11-19T14:53:13.467Z,24.3
2022-11-19T14:56:15.442Z,28.2
2022-11-19T14:59:17.405Z,22.8
2022-11-19T15:02:19.369Z,22.9
2022-11-19T15:05:21.343Z,26.2
2022-11-19T15:08:23.340Z,21.3
2022-11-19T15:11:25.290Z,22.7
2022-11-19T15:14:27.298Z,23.1
2022-11-19T15:17:29.241Z,21.6
2022-11-19T15:20:31.202Z,19.7
2022-11-19T15:23:33.175Z,19.9
2022-11-19T15:26:35.103Z,19.3
2022-11-19T15:29:37.103Z,25.4
2022-11-19T15:32:39.087Z,30.4
2022-11-19T15:35:41.001Z,25.4
2022-11-19T15:38:42.956Z,26.8
2022-11-19T15:41:44.928Z,26.7
2022-11-19T15:44:46.876Z,28.3
2022-11-19T15:47:48.881Z,24.6
2022-11-19T15:50:50.845Z,23.7
2022-11-19T15:53:52.770Z,32
2022-11-19T15:56:54.740Z,30.9
2022-11-19T15:59:56.714Z,25.3
2022-11-19T16:02:58.690Z,25.6
2022-11-19T16:06:00.611Z,24.1
2022-11-19T16:09:02.613Z,21.9
2022-11-19T16:12:04.526Z,25.6
2022-11-19T16:15:06.525Z,24.1
2022-11-19T16:18:08.459Z,23.7
2022-11-19T16:21:10.393Z,24.8
2022-11-19T16:24:12.357Z,25.1
2022-11-19T16:27:14.332Z,24.4
2022-11-19T16:30:16.284Z,23.4
2022-11-19T16:33:18.285Z,22.2
2022-11-19T16:36:20.228Z,25.6
2022-11-19T16:39:22.417Z,26.2
2022-11-19T16:42:24.131Z,22.2
2022-11-19T16:45:26.095Z,26
2022-11-19T16:48:28.051Z,24.2
2022-11-19T16:51:30.054Z,25.1
2022-11-19T16:54:31.963Z,23.8
2022-11-19T16:57:33.916Z,23.9
2022-11-19T17:00:35.909Z,25.1
2022-11-19T17:03:37.842Z,20.8
2022-11-19T17:06:39.846Z,23.8
2022-11-19T17:09:41.804Z,22.2
2022-11-19T17:12:43.754Z,23.2
2022-11-19T17:15:45.685Z,25.2
2022-11-19T17:18:47.661Z,27.3
2022-11-19T17:21:52.464Z,22.7
2022-11-19T17:24:54.419Z,24.1
2022-11-19T17:27:56.398Z,23.7
2022-11-19T17:30:58.357Z,23.1
2022-11-19T17:34:00.361Z,23.7
2022-11-19T17:37:02.299Z,21
2022-11-19T17:40:04.276Z,23.3
2022-11-19T17:43:06.237Z,21.5
2022-11-19T17:46:08.222Z,22
2022-11-19T17:49:10.191Z,21.4
2022-11-19T17:52:14.444Z,23.9
2022-11-19T17:55:14.096Z,21.3
2022-11-19T17:58:16.088Z,24.2
2022-11-19T18:01:18.072Z,25.4
2022-11-19T18:04:20.122Z,22.1
2022-11-19T18:07:22.009Z,21.1
2022-11-19T18:10:23.954Z,24.7
2022-11-19T18:13:25.903Z,24.5
2022-11-19T18:16:27.896Z,24.8
2022-11-19T18:19:30.014Z,21.6
2022-11-19T18:22:31.802Z,23.1
2022-11-19T18:25:33.762Z,21.9
2022-11-19T18:28:35.727Z,24.2
2022-11-19T18:31:37.698Z,25.2
2022-11-19T18:34:39.687Z,20.7
2022-11-19T18:37:41.664Z,26.1
2022-11-19T18:40:43.612Z,25.9
2022-11-19T18:43:45.603Z,22.6
2022-11-19T18:46:47.522Z,21.8
2022-11-19T18:49:49.489Z,21.6
2022-11-19T18:52:51.443Z,22
2022-11-19T18:55:53.413Z,21.2
2022-11-19T18:58:57.199Z,25.1
2022-11-19T19:01:57.392Z,25.4
2022-11-19T19:04:59.279Z,24.6
2022-11-19T19:08:01.243Z,25.1
2022-11-19T19:11:03.209Z,23.3
2022-11-19T19:14:05.195Z,21.6
2022-11-19T19:17:07.161Z,23.6
2022-11-19T19:20:09.114Z,35.2
2022-11-19T19:23:11.127Z,25.6
2022-11-19T19:26:13.000Z,27.4
2022-11-19T19:29:14.962Z,22.6
2022-11-19T19:32:16.939Z,26
2022-11-19T19:35:18.900Z,21.5
2022-11-19T19:38:20.867Z,19.2
2022-11-19T19:41:22.835Z,26.3
2022-11-19T19:44:24.788Z,22.3
2022-11-19T19:47:26.775Z,25.7
2022-11-19T19:50:28.733Z,22.5
2022-11-19T19:53:30.702Z,24.1
2022-11-19T19:56:32.693Z,26.1
2022-11-19T19:59:34.715Z,25.5
2022-11-19T20:02:36.624Z,27.9
2022-11-19T20:05:38.622Z,21.8
2022-11-19T20:08:40.589Z,24.3
2022-11-19T20:11:42.518Z,23.1
2022-11-19T20:14:44.481Z,22.5
2022-11-19T20:17:46.440Z,22.7
2022-11-19T20:20:48.433Z,29.6
2022-11-19T20:23:50.379Z,30.4
2022-11-19T20:26:52.357Z,31.9
2022-11-19T20:29:54.315Z,27.2
2022-11-19T20:32:56.281Z,24.2
2022-11-19T20:35:58.254Z,24.6
2022-11-19T20:39:00.232Z,20.1
2022-11-19T20:42:02.180Z,24.1
2022-11-19T20:45:04.189Z,24.4
2022-11-19T20:48:06.164Z,25.5
2022-11-19T20:51:08.188Z,21.8
2022-11-19T20:54:10.052Z,23.2
2022-11-19T20:57:12.015Z,22.5
2022-11-19T21:00:13.981Z,25.2
2022-11-19T21:03:15.991Z,24.9
2022-11-19T21:06:17.933Z,25.7
2022-11-19T21:09:20.362Z,26.9
2022-11-19T21:12:21.820Z,29.2
2022-11-19T21:15:23.768Z,26.5
2022-11-19T21:18:25.722Z,25.5
2022-11-19T21:21:27.690Z,25.7
2022-11-19T21:24:29.661Z,24.9
2022-11-19T21:27:31.629Z,24
2022-11-19T21:30:33.626Z,25.3
2022-11-19T21:33:35.596Z,24.4
2022-11-19T21:36:37.504Z,27.6
2022-11-19T21:39:39.493Z,25.9
2022-11-19T21:42:41.451Z,26.2
2022-11-19T21:45:43.433Z,24.4
2022-11-19T21:48:45.375Z,26.1
2022-11-19T21:51:47.313Z,27.6
2022-11-19T21:54:49.285Z,25.1
2022-11-19T21:57:51.252Z,24.9
2022-11-19T22:00:53.219Z,29.4
2022-11-19T22:03:55.168Z,25.6
2022-11-19T22:06:57.132Z,26.1
2022-11-19T22:09:59.079Z,28.4
2022-11-19T22:13:01.047Z,29.4
2022-11-19T22:16:03.053Z,29.6
2022-11-19T22:19:04.995Z,30
2022-11-19T22:22:06.943Z,32.1
2022-11-19T22:25:08.953Z,54.3
2022-11-19T22:28:10.876Z,45.7
2022-11-19T22:31:12.844Z,35
2022-11-19T22:34:14.809Z,44.7
2022-11-19T22:37:16.771Z,31.5
2022-11-19T22:40:18.741Z,29.3
2022-11-19T22:43:22.901Z,35.8
2022-11-19T22:46:22.646Z,38.1
2022-11-19T22:49:24.607Z,31.1
2022-11-19T22:52:26.569Z,27.8
2022-11-19T22:55:28.535Z,26
2022-11-19T22:58:30.494Z,24
2022-11-19T23:01:32.473Z,28.9
2022-11-19T23:04:34.463Z,25.2
2022-11-19T23:07:36.445Z,26.2
2022-11-19T23:10:38.371Z,20.9
2022-11-19T23:13:40.328Z,22.5
2022-11-19T23:16:42.249Z,26.6
2022-11-19T23:19:44.251Z,27.4
2022-11-19T23:22:46.174Z,24.6
2022-11-19T23:25:48.135Z,28.6
2022-11-19T23:28:50.100Z,26
2022-11-19T23:31:52.116Z,29
2022-11-19T23:34:54.025Z,24.7
2022-11-19T23:37:55.985Z,24.4
2022-11-19T23:40:57.973Z,27.8
2022-11-19T23:43:59.902Z,27
2022-11-19T23:47:01.853Z,26.2
2022-11-19T23:50:03.804Z,27
2022-11-19T23:53:05.810Z,25.2
2022-11-19T23:56:07.740Z,26.7
2022-11-19T23:59:09.719Z,27.4
